PWSweather.com
Personal Weather Stations
Station Observations
DEKREUPEL
Wsv De Kreupel, AndijkNL 1619 JV

Wsv De KreupelAndijkNL 1619 JV

Lat: 52.7417364, Lon: 5.1809356

Elevation: 33

Station Type: Rainwise MKiii LR

High Low Average
Temperature 71.0°F21.7°C 58.8°F14.9°C 64.1°F17.8°C
Dew Point 100.3°F37.9°C 86.6°F30.3°C 92.5°F33.6°C
Winds 15.0 mph 24.1 kmh Calm Calm 8.0 mph SSE12.9 kmh SSE
Wind Gusts 19.7 mph31.7 kmh -- 11.0 mph17.7 kmh
Humidity - - -
Pressure 29.98 in1015.2 mb 0.00 in0.0 mb -
Precipitation 0.00 in0.0 mm - -
Hour Temp Dew Point Humidity Winds Wind Gusts Pressure Precip Precip Rate Daily Precip Total
12:04 AM 60.7°F15.9°C 88.6°F31.4°C - 6.0 mph SE9.7 kmh SE 9.9 mph15.9 kmh 29.98 in1015.2 mb 0.00 in0.0 mm 0.00 in0.0 mm 0.00 in0.0 mm
12:09 AM 60.7°F15.9°C 88.7°F31.5°C - 6.1 mph SE9.8 kmh SE 13.0 mph20.9 kmh 29.98 in1015.2 mb 0.00 in0.0 mm 0.00 in0.0 mm 0.00 in0.0 mm
12:14 AM 60.7°F15.9°C 88.7°F31.5°C - 5.5 mph SE8.9 kmh SE 8.8 mph14.2 kmh 29.97 in1014.9 mb 0.00 in0.0 mm 0.00 in0.0 mm 0.00 in0.0 mm
12:19 AM 60.8°F16.0°C 88.7°F31.5°C - 6.4 mph SE10.3 kmh SE 11.4 mph18.3 kmh 29.97 in1014.9 mb 0.00 in0.0 mm 0.00 in0.0 mm 0.00 in0.0 mm
12:24 AM 61.0°F16.1°C 89.1°F31.7°C - 7.2 mph SE11.6 kmh SE 10.6 mph17.1 kmh 29.97 in1014.9 mb 0.00 in0.0 mm 0.00 in0.0 mm 0.00 in0.0 mm
12:29 AM 61.1°F16.2°C 89.1°F31.7°C - 6.1 mph SE9.8 kmh SE 9.5 mph15.3 kmh 29.97 in1014.9 mb 0.00 in0.0 mm 0.00 in0.0 mm 0.00 in0.0 mm
12:34 AM 61.0°F16.1°C 88.9°F31.6°C - 5.7 mph SE9.2 kmh SE 8.3 mph13.4 kmh 29.97 in1014.9 mb 0.00 in0.0 mm 0.00 in0.0 mm 0.00 in0.0 mm
12:39 AM 61.0°F16.1°C 89.1°F31.7°C - 5.4 mph SE8.7 kmh SE 9.5 mph15.3 kmh 29.97 in1014.9 mb 0.00 in0.0 mm 0.00 in0.0 mm 0.00 in0.0 mm
12:44 AM 61.0°F16.1°C 88.9°F31.6°C - 6.5 mph SE10.5 kmh SE 10.2 mph16.4 kmh 29.97 in1014.9 mb 0.00 in0.0 mm 0.00 in0.0 mm 0.00 in0.0 mm
12:49 AM 61.0°F16.1°C 88.9°F31.6°C - 6.4 mph SE10.3 kmh SE 10.5 mph16.9 kmh 29.97 in1014.9 mb 0.00 in0.0 mm 0.00 in0.0 mm 0.00 in0.0 mm
12:54 AM 61.0°F16.1°C 89.1°F31.7°C - 6.7 mph SE10.8 kmh SE 11.5 mph18.5 kmh 29.97 in1014.9 mb 0.00 in0.0 mm 0.00 in0.0 mm 0.00 in0.0 mm
12:59 AM 61.0°F16.1°C 89.1°F31.7°C - 5.9 mph SE9.5 kmh SE 10.3 mph16.6 kmh 29.97 in1014.9 mb 0.00 in0.0 mm 0.00 in0.0 mm 0.00 in0.0 mm
01:04 AM 60.8°F16.0°C 88.8°F31.6°C - 6.3 mph SE10.1 kmh SE 8.9 mph14.3 kmh 29.97 in1014.9 mb 0.00 in0.0 mm 0.00 in0.0 mm 0.00 in0.0 mm
01:09 AM 60.7°F15.9°C 88.6°F31.4°C - 6.2 mph SE10.0 kmh SE 9.1 mph14.6 kmh 29.97 in1014.9 mb 0.00 in0.0 mm 0.00 in0.0 mm 0.00 in0.0 mm
01:14 AM 60.7°F15.9°C 88.7°F31.5°C - 7.1 mph SE11.4 kmh SE 15.1 mph24.3 kmh 29.97 in1014.9 mb 0.00 in0.0 mm 0.00 in0.0 mm 0.00 in0.0 mm
01:19 AM 60.7°F15.9°C 88.7°F31.5°C - 5.9 mph SE9.5 kmh SE 10.8 mph17.4 kmh 29.97 in1014.9 mb 0.00 in0.0 mm 0.00 in0.0 mm 0.00 in0.0 mm
01:24 AM 60.7°F15.9°C 88.7°F31.5°C - 6.1 mph SE9.8 kmh SE 9.5 mph15.3 kmh 29.97 in1014.9 mb 0.00 in0.0 mm 0.00 in0.0 mm 0.00 in0.0 mm
01:29 AM 60.7°F15.9°C 88.7°F31.5°C - 5.7 mph SE9.2 kmh SE 8.4 mph13.5 kmh 29.97 in1014.9 mb 0.00 in0.0 mm 0.00 in0.0 mm 0.00 in0.0 mm
01:34 AM 60.5°F15.8°C 88.4°F31.3°C - 6.1 mph SE9.8 kmh SE 9.3 mph15.0 kmh 29.97 in1014.9 mb 0.00 in0.0 mm 0.00 in0.0 mm 0.00 in0.0 mm
01:39 AM 60.3°F15.7°C 88.2°F31.2°C - 5.8 mph SE9.3 kmh SE 8.3 mph13.4 kmh 29.97 in1014.9 mb 0.00 in0.0 mm 0.00 in0.0 mm 0.00 in0.0 mm
01:44 AM 60.2°F15.7°C 88.2°F31.2°C - 5.3 mph SE8.5 kmh SE 8.4 mph13.5 kmh 29.97 in1014.9 mb 0.00 in0.0 mm 0.00 in0.0 mm 0.00 in0.0 mm
01:49 AM 60.1°F15.6°C 88.1°F31.2°C - 5.8 mph SE9.3 kmh SE 9.4 mph15.1 kmh 29.97 in1014.9 mb 0.00 in0.0 mm 0.00 in0.0 mm 0.00 in0.0 mm
01:54 AM 60.0°F15.6°C 87.8°F31.0°C - 5.8 mph SE9.3 kmh SE 8.7 mph14.0 kmh 29.97 in1014.9 mb 0.00 in0.0 mm 0.00 in0.0 mm 0.00 in0.0 mm
01:59 AM 59.9°F15.5°C 87.8°F31.0°C - 4.5 mph SE7.2 kmh SE 7.0 mph11.3 kmh 29.97 in1014.9 mb 0.00 in0.0 mm 0.00 in0.0 mm 0.00 in0.0 mm
02:04 AM 59.8°F15.4°C 87.7°F30.9°C - 5.1 mph SE8.2 kmh SE 7.9 mph12.7 kmh 29.96 in1014.6 mb 0.00 in0.0 mm 0.00 in0.0 mm 0.00 in0.0 mm
02:09 AM 59.8°F15.4°C 87.6°F30.9°C - 4.8 mph SE7.7 kmh SE 8.2 mph13.2 kmh 29.96 in1014.6 mb 0.00 in0.0 mm 0.00 in0.0 mm 0.00 in0.0 mm
02:14 AM 59.7°F15.4°C 87.6°F30.9°C - 4.8 mph SE7.7 kmh SE 7.3 mph11.7 kmh 29.96 in1014.6 mb 0.00 in0.0 mm 0.00 in0.0 mm 0.00 in0.0 mm
02:19 AM 59.6°F15.3°C 87.4°F30.8°C - 5.0 mph SE8.0 kmh SE 7.8 mph12.6 kmh 29.96 in1014.6 mb 0.00 in0.0 mm 0.00 in0.0 mm 0.00 in0.0 mm
02:24 AM 59.5°F15.3°C 87.4°F30.8°C - 6.1 mph SE9.8 kmh SE 9.7 mph15.6 kmh 29.95 in1014.2 mb 0.00 in0.0 mm 0.00 in0.0 mm 0.00 in0.0 mm
02:29 AM 59.3°F15.2°C 87.0°F30.6°C - 4.5 mph SE7.2 kmh SE 7.0 mph11.3 kmh 29.95 in1014.2 mb 0.00 in0.0 mm 0.00 in0.0 mm 0.00 in0.0 mm
02:34 AM 59.3°F15.2°C 87.0°F30.6°C - 5.8 mph SE9.3 kmh SE 9.0 mph14.5 kmh 29.96 in1014.6 mb 0.00 in0.0 mm 0.00 in0.0 mm 0.00 in0.0 mm
02:39 AM 59.3°F15.2°C 87.0°F30.6°C - 5.5 mph SE8.9 kmh SE 10.6 mph17.1 kmh 29.95 in1014.2 mb 0.00 in0.0 mm 0.00 in0.0 mm 0.00 in0.0 mm
02:44 AM 59.5°F15.3°C 87.4°F30.8°C - 5.2 mph SE8.4 kmh SE 8.4 mph13.5 kmh 29.95 in1014.2 mb 0.00 in0.0 mm 0.00 in0.0 mm 0.00 in0.0 mm
02:49 AM 59.5°F15.3°C 87.3°F30.7°C - 4.9 mph SE7.9 kmh SE 8.2 mph13.2 kmh 29.95 in1014.2 mb 0.00 in0.0 mm 0.00 in0.0 mm 0.00 in0.0 mm
02:54 AM 59.6°F15.3°C 87.4°F30.8°C - 6.1 mph SE9.8 kmh SE 11.3 mph18.2 kmh 29.95 in1014.2 mb 0.00 in0.0 mm 0.00 in0.0 mm 0.00 in0.0 mm
02:59 AM 59.6°F15.3°C 87.5°F30.8°C - 9.4 mph SE15.1 kmh SE 14.6 mph23.5 kmh 29.95 in1014.2 mb 0.00 in0.0 mm 0.00 in0.0 mm 0.00 in0.0 mm
03:04 AM 59.5°F15.3°C 87.3°F30.7°C - 9.8 mph SE15.8 kmh SE 17.5 mph28.2 kmh 29.95 in1014.2 mb 0.00 in0.0 mm 0.00 in0.0 mm 0.00 in0.0 mm
03:09 AM 59.6°F15.3°C 87.4°F30.8°C - 9.6 mph SE15.4 kmh SE 16.4 mph26.4 kmh 29.95 in1014.2 mb 0.00 in0.0 mm 0.00 in0.0 mm 0.00 in0.0 mm
03:14 AM 59.6°F15.3°C 87.5°F30.8°C - 10.3 mph SE16.6 kmh SE 14.6 mph23.5 kmh 29.95 in1014.2 mb 0.00 in0.0 mm 0.00 in0.0 mm 0.00 in0.0 mm
03:19 AM 59.5°F15.3°C 87.3°F30.7°C - 9.8 mph SSE15.8 kmh SSE 15.1 mph24.3 kmh 29.94 in1013.9 mb 0.00 in0.0 mm 0.00 in0.0 mm 0.00 in0.0 mm
03:24 AM 59.7°F15.4°C 87.6°F30.9°C - 9.2 mph SSE14.8 kmh SSE 16.4 mph26.4 kmh 29.94 in1013.9 mb 0.00 in0.0 mm 0.00 in0.0 mm 0.00 in0.0 mm
03:29 AM 59.7°F15.4°C 87.5°F30.8°C - 6.8 mph SSE10.9 kmh SSE 11.4 mph18.3 kmh 29.94 in1013.9 mb 0.00 in0.0 mm 0.00 in0.0 mm 0.00 in0.0 mm
03:34 AM 59.6°F15.3°C 87.4°F30.8°C - 8.6 mph SE13.8 kmh SE 15.7 mph25.3 kmh 29.94 in1013.9 mb 0.00 in0.0 mm 0.00 in0.0 mm 0.00 in0.0 mm
03:39 AM 59.6°F15.3°C 87.5°F30.8°C - 8.1 mph SE13.0 kmh SE 12.6 mph20.3 kmh 29.95 in1014.2 mb 0.00 in0.0 mm 0.00 in0.0 mm 0.00 in0.0 mm
03:44 AM 59.5°F15.3°C 87.3°F30.7°C - 10.4 mph SSE16.7 kmh SSE 16.3 mph26.2 kmh 29.94 in1013.9 mb 0.00 in0.0 mm 0.00 in0.0 mm 0.00 in0.0 mm
03:49 AM 59.3°F15.2°C 87.1°F30.6°C - 5.3 mph SE8.5 kmh SE 8.1 mph13.0 kmh 29.95 in1014.2 mb 0.00 in0.0 mm 0.00 in0.0 mm 0.00 in0.0 mm
03:54 AM 59.3°F15.2°C 87.1°F30.6°C - 6.0 mph SE9.7 kmh SE 8.7 mph14.0 kmh 29.94 in1013.9 mb 0.00 in0.0 mm 0.00 in0.0 mm 0.00 in0.0 mm
03:59 AM 59.2°F15.1°C 87.0°F30.6°C - 5.6 mph SE9.0 kmh SE 9.0 mph14.5 kmh 29.94 in1013.9 mb 0.00 in0.0 mm 0.00 in0.0 mm 0.00 in0.0 mm
04:04 AM 59.2°F15.1°C 86.9°F30.5°C - 5.3 mph SSE8.5 kmh SSE 8.9 mph14.3 kmh 29.94 in1013.9 mb 0.00 in0.0 mm 0.00 in0.0 mm 0.00 in0.0 mm
04:09 AM 59.2°F15.1°C 86.9°F30.5°C - 5.0 mph SE8.0 kmh SE 8.1 mph13.0 kmh 29.94 in1013.9 mb 0.00 in0.0 mm 0.00 in0.0 mm 0.00 in0.0 mm
04:14 AM 59.2°F15.1°C 87.0°F30.6°C - 4.5 mph SSE7.2 kmh SSE 7.8 mph12.6 kmh 29.95 in1014.2 mb 0.00 in0.0 mm 0.00 in0.0 mm 0.00 in0.0 mm
04:19 AM 59.1°F15.1°C 86.9°F30.5°C - 4.4 mph SE7.1 kmh SE 6.7 mph10.8 kmh 29.94 in1013.9 mb 0.00 in0.0 mm 0.00 in0.0 mm 0.00 in0.0 mm
04:24 AM 59.0°F15.0°C 86.8°F30.4°C - 4.6 mph SSE7.4 kmh SSE 7.1 mph11.4 kmh 29.94 in1013.9 mb 0.00 in0.0 mm 0.00 in0.0 mm 0.00 in0.0 mm
04:29 AM 59.0°F15.0°C 86.8°F30.4°C - 6.0 mph SE9.7 kmh SE 9.7 mph15.6 kmh 29.94 in1013.9 mb 0.00 in0.0 mm 0.00 in0.0 mm 0.00 in0.0 mm
04:34 AM 59.0°F15.0°C 86.7°F30.4°C - 5.0 mph SSE8.0 kmh SSE 7.2 mph11.6 kmh 29.94 in1013.9 mb 0.00 in0.0 mm 0.00 in0.0 mm 0.00 in0.0 mm
04:39 AM 58.8°F14.9°C 86.6°F30.3°C - 5.3 mph SSE8.5 kmh SSE 8.5 mph13.7 kmh 29.94 in1013.9 mb 0.00 in0.0 mm 0.00 in0.0 mm 0.00 in0.0 mm
04:44 AM 58.8°F14.9°C 86.6°F30.3°C - 5.9 mph SSE9.5 kmh SSE 7.9 mph12.7 kmh 29.94 in1013.9 mb 0.00 in0.0 mm 0.00 in0.0 mm 0.00 in0.0 mm
04:49 AM 59.0°F15.0°C 86.8°F30.4°C - 4.8 mph SSE7.7 kmh SSE 6.3 mph10.1 kmh 29.94 in1013.9 mb 0.00 in0.0 mm 0.00 in0.0 mm 0.00 in0.0 mm
04:54 AM 59.0°F15.0°C 86.7°F30.4°C - 5.4 mph SSE8.7 kmh SSE 8.3 mph13.4 kmh 29.94 in1013.9 mb 0.00 in0.0 mm 0.00 in0.0 mm 0.00 in0.0 mm
04:59 AM 59.0°F15.0°C 86.8°F30.4°C - 5.0 mph SSE8.0 kmh SSE 9.6 mph15.4 kmh 29.94 in1013.9 mb 0.00 in0.0 mm 0.00 in0.0 mm 0.00 in0.0 mm
05:04 AM 59.0°F15.0°C 86.7°F30.4°C - 6.0 mph SE9.7 kmh SE 9.4 mph15.1 kmh 29.94 in1013.9 mb 0.00 in0.0 mm 0.00 in0.0 mm 0.00 in0.0 mm
05:09 AM 59.0°F15.0°C 86.7°F30.4°C - 5.8 mph SE9.3 kmh SE 8.8 mph14.2 kmh 29.94 in1013.9 mb 0.00 in0.0 mm 0.00 in0.0 mm 0.00 in0.0 mm
05:14 AM 59.0°F15.0°C 86.7°F30.4°C - 5.9 mph SSE9.5 kmh SSE 9.5 mph15.3 kmh 29.93 in1013.5 mb 0.00 in0.0 mm 0.00 in0.0 mm 0.00 in0.0 mm
05:19 AM 59.0°F15.0°C 86.7°F30.4°C - 5.1 mph SE8.2 kmh SE 8.3 mph13.4 kmh 29.93 in1013.5 mb 0.00 in0.0 mm 0.00 in0.0 mm 0.00 in0.0 mm
05:24 AM 59.0°F15.0°C 86.7°F30.4°C - 5.5 mph SE8.9 kmh SE 8.0 mph12.9 kmh 29.93 in1013.5 mb 0.00 in0.0 mm 0.00 in0.0 mm 0.00 in0.0 mm
05:29 AM 59.0°F15.0°C 86.7°F30.4°C - 5.6 mph SE9.0 kmh SE 8.1 mph13.0 kmh 29.93 in1013.5 mb 0.00 in0.0 mm 0.00 in0.0 mm 0.00 in0.0 mm
05:34 AM 59.0°F15.0°C 86.8°F30.4°C - 5.8 mph SE9.3 kmh SE 8.7 mph14.0 kmh 29.93 in1013.5 mb 0.00 in0.0 mm 0.00 in0.0 mm 0.00 in0.0 mm
05:39 AM 59.0°F15.0°C 86.7°F30.4°C - 6.7 mph SSE10.8 kmh SSE 9.6 mph15.4 kmh 29.93 in1013.5 mb 0.00 in0.0 mm 0.00 in0.0 mm 0.00 in0.0 mm
05:44 AM 59.0°F15.0°C 86.8°F30.4°C - 5.3 mph SSE8.5 kmh SSE 8.6 mph13.8 kmh 29.94 in1013.9 mb 0.00 in0.0 mm 0.00 in0.0 mm 0.00 in0.0 mm
05:49 AM 59.0°F15.0°C 86.7°F30.4°C - 5.6 mph SE9.0 kmh SE 8.4 mph13.5 kmh 29.93 in1013.5 mb 0.00 in0.0 mm 0.00 in0.0 mm 0.00 in0.0 mm
05:54 AM 59.0°F15.0°C 86.8°F30.4°C - 6.2 mph SSE10.0 kmh SSE 9.1 mph14.6 kmh 29.94 in1013.9 mb 0.00 in0.0 mm 0.00 in0.0 mm 0.00 in0.0 mm
05:59 AM 59.0°F15.0°C 86.8°F30.4°C - 5.1 mph SE8.2 kmh SE 8.1 mph13.0 kmh 29.94 in1013.9 mb 0.00 in0.0 mm 0.00 in0.0 mm 0.00 in0.0 mm
06:04 AM 59.0°F15.0°C 86.7°F30.4°C - 6.7 mph SSE10.8 kmh SSE 10.4 mph16.7 kmh 29.93 in1013.5 mb 0.00 in0.0 mm 0.00 in0.0 mm 0.00 in0.0 mm
06:09 AM 59.0°F15.0°C 86.8°F30.4°C - 6.0 mph SE9.7 kmh SE 9.9 mph15.9 kmh 29.93 in1013.5 mb 0.00 in0.0 mm 0.00 in0.0 mm 0.00 in0.0 mm
06:14 AM 58.9°F14.9°C 86.7°F30.4°C - 6.1 mph SSE9.8 kmh SSE 9.1 mph14.6 kmh 29.93 in1013.5 mb 0.00 in0.0 mm 0.00 in0.0 mm 0.00 in0.0 mm
06:19 AM 58.9°F14.9°C 86.6°F30.3°C - 6.6 mph SE10.6 kmh SE 12.8 mph20.6 kmh 29.93 in1013.5 mb 0.00 in0.0 mm 0.00 in0.0 mm 0.00 in0.0 mm
06:24 AM 59.0°F15.0°C 86.8°F30.4°C - 6.1 mph SE9.8 kmh SE 9.6 mph15.4 kmh 29.93 in1013.5 mb 0.00 in0.0 mm 0.00 in0.0 mm 0.00 in0.0 mm
06:29 AM 59.0°F15.0°C 86.8°F30.4°C - 11.6 mph SE18.7 kmh SE 17.5 mph28.2 kmh 29.93 in1013.5 mb 0.00 in0.0 mm 0.00 in0.0 mm 0.00 in0.0 mm
06:34 AM 59.0°F15.0°C 86.8°F30.4°C - 10.6 mph SE17.1 kmh SE 16.1 mph25.9 kmh 29.93 in1013.5 mb 0.00 in0.0 mm 0.00 in0.0 mm 0.00 in0.0 mm
06:39 AM 59.0°F15.0°C 86.8°F30.4°C - 12.0 mph SSE19.3 kmh SSE 16.3 mph26.2 kmh 29.93 in1013.5 mb 0.00 in0.0 mm 0.00 in0.0 mm 0.00 in0.0 mm
06:44 AM 59.0°F15.0°C 86.8°F30.4°C - 9.5 mph SSE15.3 kmh SSE 15.3 mph24.6 kmh 29.93 in1013.5 mb 0.00 in0.0 mm 0.00 in0.0 mm 0.00 in0.0 mm
06:49 AM 59.0°F15.0°C 86.8°F30.4°C - 12.6 mph SSE20.3 kmh SSE 19.7 mph31.7 kmh 29.93 in1013.5 mb 0.00 in0.0 mm 0.00 in0.0 mm 0.00 in0.0 mm
06:54 AM 59.0°F15.0°C 86.8°F30.4°C - 10.0 mph SSE16.1 kmh SSE 14.7 mph23.7 kmh 29.94 in1013.9 mb 0.00 in0.0 mm 0.00 in0.0 mm 0.00 in0.0 mm
06:59 AM 59.0°F15.0°C 86.7°F30.4°C - 10.8 mph SSE17.4 kmh SSE 16.8 mph27.0 kmh 29.94 in1013.9 mb 0.00 in0.0 mm 0.00 in0.0 mm 0.00 in0.0 mm
07:04 AM 59.0°F15.0°C 86.8°F30.4°C - 10.9 mph SSE17.5 kmh SSE 17.0 mph27.4 kmh 29.94 in1013.9 mb 0.00 in0.0 mm 0.00 in0.0 mm 0.00 in0.0 mm
07:09 AM 59.0°F15.0°C 86.7°F30.4°C - 10.3 mph SSE16.6 kmh SSE 14.8 mph23.8 kmh 29.94 in1013.9 mb 0.00 in0.0 mm 0.00 in0.0 mm 0.00 in0.0 mm
07:14 AM 59.0°F15.0°C 86.8°F30.4°C - 9.7 mph SE15.6 kmh SE 15.2 mph24.5 kmh 29.94 in1013.9 mb 0.00 in0.0 mm 0.00 in0.0 mm 0.00 in0.0 mm
07:19 AM 59.0°F15.0°C 86.7°F30.4°C - 9.5 mph SSE15.3 kmh SSE 14.0 mph22.5 kmh 29.94 in1013.9 mb 0.00 in0.0 mm 0.00 in0.0 mm 0.00 in0.0 mm
07:24 AM 59.0°F15.0°C 86.8°F30.4°C - 7.1 mph SE11.4 kmh SE 12.0 mph19.3 kmh 29.95 in1014.2 mb 0.00 in0.0 mm 0.00 in0.0 mm 0.00 in0.0 mm
07:29 AM 59.0°F15.0°C 86.7°F30.4°C - 8.0 mph SSE12.9 kmh SSE 11.4 mph18.3 kmh 29.95 in1014.2 mb 0.00 in0.0 mm 0.00 in0.0 mm 0.00 in0.0 mm
07:34 AM 59.2°F15.1°C 86.9°F30.5°C - 7.2 mph SSE11.6 kmh SSE 11.8 mph19.0 kmh 29.95 in1014.2 mb 0.00 in0.0 mm 0.00 in0.0 mm 0.00 in0.0 mm
07:39 AM 59.2°F15.1°C 87.0°F30.6°C - 7.4 mph SSE11.9 kmh SSE 11.1 mph17.9 kmh 29.95 in1014.2 mb 0.00 in0.0 mm 0.00 in0.0 mm 0.00 in0.0 mm
07:44 AM 59.3°F15.2°C 87.1°F30.6°C - 8.1 mph SSE13.0 kmh SSE 12.2 mph19.6 kmh 29.95 in1014.2 mb 0.00 in0.0 mm 0.00 in0.0 mm 0.00 in0.0 mm
07:49 AM 59.5°F15.3°C 87.4°F30.8°C - 8.0 mph SSE12.9 kmh SSE 10.6 mph17.1 kmh 29.96 in1014.6 mb 0.00 in0.0 mm 0.00 in0.0 mm 0.00 in0.0 mm
07:54 AM 59.5°F15.3°C 87.3°F30.7°C - 8.9 mph SSE14.3 kmh SSE 12.7 mph20.4 kmh 29.96 in1014.6 mb 0.00 in0.0 mm 0.00 in0.0 mm 0.00 in0.0 mm
07:59 AM 59.8°F15.4°C 87.7°F30.9°C - 8.9 mph SSE14.3 kmh SSE 13.0 mph20.9 kmh 29.96 in1014.6 mb 0.00 in0.0 mm 0.00 in0.0 mm 0.00 in0.0 mm
08:04 AM 60.0°F15.6°C 87.9°F31.1°C - 10.7 mph SSE17.2 kmh SSE 15.3 mph24.6 kmh 29.96 in1014.6 mb 0.00 in0.0 mm 0.00 in0.0 mm 0.00 in0.0 mm
08:09 AM 60.2°F15.7°C 88.2°F31.2°C - 9.2 mph SSE14.8 kmh SSE 12.5 mph20.1 kmh 29.96 in1014.6 mb 0.00 in0.0 mm 0.00 in0.0 mm 0.00 in0.0 mm
08:14 AM 60.4°F15.8°C 88.4°F31.3°C - 9.3 mph SSE15.0 kmh SSE 16.8 mph27.0 kmh 29.96 in1014.6 mb 0.00 in0.0 mm 0.00 in0.0 mm 0.00 in0.0 mm
08:19 AM 60.7°F15.9°C 88.6°F31.4°C - 11.5 mph S18.5 kmh S 18.1 mph29.1 kmh 29.96 in1014.6 mb 0.00 in0.0 mm 0.00 in0.0 mm 0.00 in0.0 mm
08:24 AM 60.8°F16.0°C 88.8°F31.6°C - 13.9 mph S22.4 kmh S 18.5 mph29.8 kmh 29.96 in1014.6 mb 0.00 in0.0 mm 0.00 in0.0 mm 0.00 in0.0 mm
08:29 AM 61.1°F16.2°C 89.2°F31.8°C - 15.0 mph S24.1 kmh S 19.1 mph30.7 kmh 29.96 in1014.6 mb 0.00 in0.0 mm 0.00 in0.0 mm 0.00 in0.0 mm
08:34 AM 61.3°F16.3°C 89.4°F31.9°C - 9.8 mph S15.8 kmh S 13.8 mph22.2 kmh 29.96 in1014.6 mb 0.00 in0.0 mm 0.00 in0.0 mm 0.00 in0.0 mm
08:39 AM 61.6°F16.4°C 89.7°F32.1°C - 10.6 mph S17.1 kmh S 14.0 mph22.5 kmh 29.96 in1014.6 mb 0.00 in0.0 mm 0.00 in0.0 mm 0.00 in0.0 mm
08:44 AM 61.7°F16.5°C 89.9°F32.2°C - 10.4 mph S16.7 kmh S 14.2 mph22.9 kmh 29.96 in1014.6 mb 0.00 in0.0 mm 0.00 in0.0 mm 0.00 in0.0 mm
08:49 AM 62.0°F16.7°C 90.1°F32.3°C - 9.5 mph S15.3 kmh S 13.7 mph22.0 kmh 29.97 in1014.9 mb 0.00 in0.0 mm 0.00 in0.0 mm 0.00 in0.0 mm
08:54 AM 62.2°F16.8°C 90.3°F32.4°C - 8.6 mph S13.8 kmh S 12.3 mph19.8 kmh 29.97 in1014.9 mb 0.00 in0.0 mm 0.00 in0.0 mm 0.00 in0.0 mm
08:59 AM 62.2°F16.8°C 90.4°F32.4°C - 7.8 mph S12.6 kmh S 11.6 mph18.7 kmh 29.97 in1014.9 mb 0.00 in0.0 mm 0.00 in0.0 mm 0.00 in0.0 mm
09:04 AM 62.3°F16.8°C 90.5°F32.5°C - 9.8 mph S15.8 kmh S 13.0 mph20.9 kmh 29.97 in1014.9 mb 0.00 in0.0 mm 0.00 in0.0 mm 0.00 in0.0 mm
09:09 AM 62.5°F16.9°C 90.6°F32.6°C - 10.6 mph S17.1 kmh S 15.5 mph24.9 kmh 29.97 in1014.9 mb 0.00 in0.0 mm 0.00 in0.0 mm 0.00 in0.0 mm
09:14 AM 62.6°F17.0°C 90.9°F32.7°C - 9.8 mph S15.8 kmh S 13.7 mph22.0 kmh 29.97 in1014.9 mb 0.00 in0.0 mm 0.00 in0.0 mm 0.00 in0.0 mm
09:19 AM 62.7°F17.1°C 90.9°F32.7°C - 10.6 mph S17.1 kmh S 13.5 mph21.7 kmh 29.97 in1014.9 mb 0.00 in0.0 mm 0.00 in0.0 mm 0.00 in0.0 mm
09:24 AM 62.8°F17.1°C 91.1°F32.8°C - 8.4 mph S13.5 kmh S 11.5 mph18.5 kmh 29.97 in1014.9 mb 0.00 in0.0 mm 0.00 in0.0 mm 0.00 in0.0 mm
09:29 AM 63.0°F17.2°C 91.3°F32.9°C - 8.2 mph S13.2 kmh S 12.5 mph20.1 kmh 29.97 in1014.9 mb 0.00 in0.0 mm 0.00 in0.0 mm 0.00 in0.0 mm
09:34 AM 63.2°F17.3°C 91.4°F33.0°C - 8.7 mph S14.0 kmh S 12.8 mph20.6 kmh 29.97 in1014.9 mb 0.00 in0.0 mm 0.00 in0.0 mm 0.00 in0.0 mm
09:39 AM 63.2°F17.3°C 91.5°F33.1°C - 8.2 mph S13.2 kmh S 10.9 mph17.5 kmh 29.97 in1014.9 mb 0.00 in0.0 mm 0.00 in0.0 mm 0.00 in0.0 mm
09:44 AM 63.2°F17.3°C 91.4°F33.0°C - 8.2 mph S13.2 kmh S 11.8 mph19.0 kmh 29.97 in1014.9 mb 0.00 in0.0 mm 0.00 in0.0 mm 0.00 in0.0 mm
09:49 AM 63.2°F17.3°C 91.5°F33.1°C - 8.5 mph S13.7 kmh S 11.6 mph18.7 kmh 29.97 in1014.9 mb 0.00 in0.0 mm 0.00 in0.0 mm 0.00 in0.0 mm
09:54 AM 63.1°F17.3°C 91.4°F33.0°C - 8.0 mph S12.9 kmh S 11.6 mph18.7 kmh 29.97 in1014.9 mb 0.00 in0.0 mm 0.00 in0.0 mm 0.00 in0.0 mm
09:59 AM 63.0°F17.2°C 91.2°F32.9°C - 8.5 mph S13.7 kmh S 11.1 mph17.9 kmh 29.97 in1014.9 mb 0.00 in0.0 mm 0.00 in0.0 mm 0.00 in0.0 mm
10:04 AM 62.8°F17.1°C 91.1°F32.8°C - 7.2 mph S11.6 kmh S 10.9 mph17.5 kmh 29.97 in1014.9 mb 0.00 in0.0 mm 0.00 in0.0 mm 0.00 in0.0 mm
10:09 AM 63.0°F17.2°C 91.3°F32.9°C - 7.3 mph S11.7 kmh S 9.7 mph15.6 kmh 29.97 in1014.9 mb 0.00 in0.0 mm 0.00 in0.0 mm 0.00 in0.0 mm
10:14 AM 63.2°F17.3°C 91.5°F33.1°C - 7.6 mph S12.2 kmh S 10.0 mph16.1 kmh 29.97 in1014.9 mb 0.00 in0.0 mm 0.00 in0.0 mm 0.00 in0.0 mm
10:19 AM 63.2°F17.3°C 91.5°F33.1°C - 6.2 mph S10.0 kmh S 9.0 mph14.5 kmh 29.97 in1014.9 mb 0.00 in0.0 mm 0.00 in0.0 mm 0.00 in0.0 mm
10:24 AM 63.5°F17.5°C 91.8°F33.2°C - 7.0 mph S11.3 kmh S 10.0 mph16.1 kmh 29.97 in1014.9 mb 0.00 in0.0 mm 0.00 in0.0 mm 0.00 in0.0 mm
10:29 AM 63.9°F17.7°C 92.3°F33.5°C - 7.2 mph S11.6 kmh S 10.7 mph17.2 kmh 29.97 in1014.9 mb 0.00 in0.0 mm 0.00 in0.0 mm 0.00 in0.0 mm
10:34 AM 64.3°F17.9°C 92.8°F33.8°C - 8.3 mph S13.4 kmh S 11.2 mph18.0 kmh 29.97 in1014.9 mb 0.00 in0.0 mm 0.00 in0.0 mm 0.00 in0.0 mm
10:39 AM 64.7°F18.2°C 93.1°F33.9°C - 7.0 mph S11.3 kmh S 11.2 mph18.0 kmh 29.97 in1014.9 mb 0.00 in0.0 mm 0.00 in0.0 mm 0.00 in0.0 mm
10:44 AM 65.0°F18.3°C 93.6°F34.2°C - 7.4 mph S11.9 kmh S 10.2 mph16.4 kmh 29.97 in1014.9 mb 0.00 in0.0 mm 0.00 in0.0 mm 0.00 in0.0 mm
10:49 AM 65.2°F18.4°C 93.8°F34.3°C - 7.5 mph S12.1 kmh S 11.0 mph17.7 kmh 29.96 in1014.6 mb 0.00 in0.0 mm 0.00 in0.0 mm 0.00 in0.0 mm
10:54 AM 65.5°F18.6°C 94.1°F34.5°C - 7.8 mph S12.6 kmh S 10.2 mph16.4 kmh 29.96 in1014.6 mb 0.00 in0.0 mm 0.00 in0.0 mm 0.00 in0.0 mm
10:59 AM 65.5°F18.6°C 94.1°F34.5°C - 9.0 mph S14.5 kmh S 11.8 mph19.0 kmh 29.96 in1014.6 mb 0.00 in0.0 mm 0.00 in0.0 mm 0.00 in0.0 mm
11:04 AM 65.2°F18.4°C 93.7°F34.3°C - 6.4 mph SSE10.3 kmh SSE 9.7 mph15.6 kmh 29.96 in1014.6 mb 0.00 in0.0 mm 0.00 in0.0 mm 0.00 in0.0 mm
11:09 AM 65.0°F18.3°C 93.4°F34.1°C - 7.4 mph S11.9 kmh S 10.4 mph16.7 kmh 29.96 in1014.6 mb 0.00 in0.0 mm 0.00 in0.0 mm 0.00 in0.0 mm
11:14 AM 64.9°F18.3°C 93.5°F34.2°C - 7.9 mph S12.7 kmh S 10.8 mph17.4 kmh 29.96 in1014.6 mb 0.00 in0.0 mm 0.00 in0.0 mm 0.00 in0.0 mm
11:19 AM 64.7°F18.2°C 93.1°F33.9°C - 6.7 mph S10.8 kmh S 9.9 mph15.9 kmh 29.96 in1014.6 mb 0.00 in0.0 mm 0.00 in0.0 mm 0.00 in0.0 mm
11:24 AM 64.8°F18.2°C 93.3°F34.1°C - 7.3 mph SSE11.7 kmh SSE 10.7 mph17.2 kmh 29.96 in1014.6 mb 0.00 in0.0 mm 0.00 in0.0 mm 0.00 in0.0 mm
11:29 AM 64.9°F18.3°C 93.5°F34.2°C - 7.6 mph S12.2 kmh S 11.6 mph18.7 kmh 29.96 in1014.6 mb 0.00 in0.0 mm 0.00 in0.0 mm 0.00 in0.0 mm
11:34 AM 65.0°F18.3°C 93.6°F34.2°C - 10.1 mph S16.3 kmh S 13.1 mph21.1 kmh 29.95 in1014.2 mb 0.00 in0.0 mm 0.00 in0.0 mm 0.00 in0.0 mm
11:39 AM 65.1°F18.4°C 93.7°F34.3°C - 9.0 mph S14.5 kmh S 13.1 mph21.1 kmh 29.96 in1014.6 mb 0.00 in0.0 mm 0.00 in0.0 mm 0.00 in0.0 mm
11:44 AM 65.2°F18.4°C 93.8°F34.3°C - 8.6 mph S13.8 kmh S 11.9 mph19.2 kmh 29.95 in1014.2 mb 0.00 in0.0 mm 0.00 in0.0 mm 0.00 in0.0 mm
11:49 AM 65.2°F18.4°C 93.8°F34.3°C - 6.7 mph SSE10.8 kmh SSE 9.8 mph15.8 kmh 29.95 in1014.2 mb 0.00 in0.0 mm 0.00 in0.0 mm 0.00 in0.0 mm
11:54 AM 65.4°F18.6°C 94.0°F34.4°C - 7.9 mph S12.7 kmh S 11.0 mph17.7 kmh 29.96 in1014.6 mb 0.00 in0.0 mm 0.00 in0.0 mm 0.00 in0.0 mm
11:59 AM 65.5°F18.6°C 94.1°F34.5°C - 7.5 mph S12.1 kmh S 11.0 mph17.7 kmh 29.96 in1014.6 mb 0.00 in0.0 mm 0.00 in0.0 mm 0.00 in0.0 mm
12:04 PM 65.7°F18.7°C 94.2°F34.6°C - 8.6 mph S13.8 kmh S 12.3 mph19.8 kmh 29.96 in1014.6 mb 0.00 in0.0 mm 0.00 in0.0 mm 0.00 in0.0 mm
12:09 PM 65.9°F18.8°C 94.6°F34.8°C - 9.6 mph S15.4 kmh S 14.5 mph23.3 kmh 29.96 in1014.6 mb 0.00 in0.0 mm 0.00 in0.0 mm 0.00 in0.0 mm
12:14 PM 66.0°F18.9°C 94.7°F34.8°C - 7.5 mph S12.1 kmh S 12.4 mph20.0 kmh 29.95 in1014.2 mb 0.00 in0.0 mm 0.00 in0.0 mm 0.00 in0.0 mm
12:19 PM 66.2°F19.0°C 94.9°F34.9°C - 6.2 mph SSE10.0 kmh SSE 10.9 mph17.5 kmh 29.95 in1014.2 mb 0.00 in0.0 mm 0.00 in0.0 mm 0.00 in0.0 mm
12:24 PM 66.7°F19.3°C 95.5°F35.3°C - 8.1 mph S13.0 kmh S 12.0 mph19.3 kmh 29.95 in1014.2 mb 0.00 in0.0 mm 0.00 in0.0 mm 0.00 in0.0 mm
12:29 PM 67.0°F19.4°C 95.8°F35.4°C - 5.3 mph S8.5 kmh S 9.6 mph15.4 kmh 29.95 in1014.2 mb 0.00 in0.0 mm 0.00 in0.0 mm 0.00 in0.0 mm
12:34 PM 67.0°F19.4°C 95.8°F35.4°C - 5.7 mph SSE9.2 kmh SSE 10.6 mph17.1 kmh 29.95 in1014.2 mb 0.00 in0.0 mm 0.00 in0.0 mm 0.00 in0.0 mm
12:39 PM 67.0°F19.4°C 95.8°F35.4°C - 7.4 mph SSE11.9 kmh SSE 11.2 mph18.0 kmh 29.95 in1014.2 mb 0.00 in0.0 mm 0.00 in0.0 mm 0.00 in0.0 mm
12:44 PM 67.0°F19.4°C 95.8°F35.4°C - 6.5 mph SSE10.5 kmh SSE 11.2 mph18.0 kmh 29.95 in1014.2 mb 0.00 in0.0 mm 0.00 in0.0 mm 0.00 in0.0 mm
12:49 PM 67.0°F19.4°C 95.8°F35.4°C - 6.0 mph S9.7 kmh S 10.8 mph17.4 kmh 29.95 in1014.2 mb 0.00 in0.0 mm 0.00 in0.0 mm 0.00 in0.0 mm
12:54 PM 67.0°F19.4°C 95.8°F35.4°C - 6.9 mph S11.1 kmh S 11.5 mph18.5 kmh 29.95 in1014.2 mb 0.00 in0.0 mm 0.00 in0.0 mm 0.00 in0.0 mm
12:59 PM 67.0°F19.4°C 95.7°F35.4°C - 9.9 mph S15.9 kmh S 13.1 mph21.1 kmh 29.94 in1013.9 mb 0.00 in0.0 mm 0.00 in0.0 mm 0.00 in0.0 mm
01:04 PM 67.3°F19.6°C 96.2°F35.7°C - 11.0 mph S17.7 kmh S 16.2 mph26.1 kmh 29.94 in1013.9 mb 0.00 in0.0 mm 0.00 in0.0 mm 0.00 in0.0 mm
01:09 PM 67.6°F19.8°C 96.5°F35.8°C - 9.0 mph SSE14.5 kmh SSE 12.6 mph20.3 kmh 29.94 in1013.9 mb 0.00 in0.0 mm 0.00 in0.0 mm 0.00 in0.0 mm
01:14 PM 67.7°F19.8°C 96.6°F35.9°C - 8.7 mph S14.0 kmh S 13.1 mph21.1 kmh 29.94 in1013.9 mb 0.00 in0.0 mm 0.00 in0.0 mm 0.00 in0.0 mm
01:19 PM 68.0°F20.0°C 96.8°F36.0°C - 10.0 mph SSE16.1 kmh SSE 13.7 mph22.0 kmh 29.94 in1013.9 mb 0.00 in0.0 mm 0.00 in0.0 mm 0.00 in0.0 mm
01:24 PM 68.4°F20.2°C 97.3°F36.3°C - 11.0 mph S17.7 kmh S 15.5 mph24.9 kmh 29.93 in1013.5 mb 0.00 in0.0 mm 0.00 in0.0 mm 0.00 in0.0 mm
01:29 PM 68.7°F20.4°C 97.6°F36.4°C - 9.4 mph SSE15.1 kmh SSE 13.1 mph21.1 kmh 29.93 in1013.5 mb 0.00 in0.0 mm 0.00 in0.0 mm 0.00 in0.0 mm
01:34 PM 68.9°F20.5°C 98.0°F36.7°C - 10.0 mph SSE16.1 kmh SSE 13.6 mph21.9 kmh 29.94 in1013.9 mb 0.00 in0.0 mm 0.00 in0.0 mm 0.00 in0.0 mm
01:39 PM 69.1°F20.6°C 98.2°F36.8°C - 10.8 mph S17.4 kmh S 15.2 mph24.5 kmh 29.94 in1013.9 mb 0.00 in0.0 mm 0.00 in0.0 mm 0.00 in0.0 mm
01:44 PM 69.3°F20.7°C 98.4°F36.9°C - 10.5 mph S16.9 kmh S 13.7 mph22.0 kmh 29.94 in1013.9 mb 0.00 in0.0 mm 0.00 in0.0 mm 0.00 in0.0 mm
01:49 PM 69.3°F20.7°C 98.4°F36.9°C - 10.3 mph SSE16.6 kmh SSE 15.0 mph24.1 kmh 29.94 in1013.9 mb 0.00 in0.0 mm 0.00 in0.0 mm 0.00 in0.0 mm
01:54 PM 69.4°F20.8°C 98.5°F36.9°C - 11.7 mph S18.8 kmh S 16.9 mph27.2 kmh 29.94 in1013.9 mb 0.00 in0.0 mm 0.00 in0.0 mm 0.00 in0.0 mm
01:59 PM 69.4°F20.8°C 98.5°F36.9°C - 13.2 mph SSE21.2 kmh SSE 17.8 mph28.6 kmh 29.93 in1013.5 mb 0.00 in0.0 mm 0.00 in0.0 mm 0.00 in0.0 mm
02:04 PM 69.4°F20.8°C 98.4°F36.9°C - 10.6 mph S17.1 kmh S 15.7 mph25.3 kmh 29.94 in1013.9 mb 0.00 in0.0 mm 0.00 in0.0 mm 0.00 in0.0 mm
02:09 PM 69.5°F20.8°C 98.5°F36.9°C - 10.5 mph SSE16.9 kmh SSE 16.7 mph26.9 kmh 29.93 in1013.5 mb 0.00 in0.0 mm 0.00 in0.0 mm 0.00 in0.0 mm
02:14 PM 69.7°F20.9°C 98.7°F37.1°C - 11.7 mph SSE18.8 kmh SSE 17.0 mph27.4 kmh 29.93 in1013.5 mb 0.00 in0.0 mm 0.00 in0.0 mm 0.00 in0.0 mm
02:19 PM 69.5°F20.8°C 98.7°F37.1°C - 11.2 mph S18.0 kmh S 15.8 mph25.4 kmh 29.93 in1013.5 mb 0.00 in0.0 mm 0.00 in0.0 mm 0.00 in0.0 mm
02:24 PM 69.5°F20.8°C 98.7°F37.1°C - 9.6 mph S15.4 kmh S 13.4 mph21.6 kmh 29.93 in1013.5 mb 0.00 in0.0 mm 0.00 in0.0 mm 0.00 in0.0 mm
02:29 PM 69.7°F20.9°C 98.9°F37.2°C - 9.4 mph SSE15.1 kmh SSE 13.4 mph21.6 kmh 29.93 in1013.5 mb 0.00 in0.0 mm 0.00 in0.0 mm 0.00 in0.0 mm
02:34 PM 69.8°F21.0°C 99.0°F37.2°C - 9.9 mph SSE15.9 kmh SSE 14.8 mph23.8 kmh 29.93 in1013.5 mb 0.00 in0.0 mm 0.00 in0.0 mm 0.00 in0.0 mm
02:39 PM 70.0°F21.1°C 99.2°F37.3°C - 9.8 mph SSE15.8 kmh SSE 13.2 mph21.2 kmh 29.93 in1013.5 mb 0.00 in0.0 mm 0.00 in0.0 mm 0.00 in0.0 mm
02:44 PM 70.0°F21.1°C 99.2°F37.3°C - 10.4 mph S16.7 kmh S 14.2 mph22.9 kmh 29.93 in1013.5 mb 0.00 in0.0 mm 0.00 in0.0 mm 0.00 in0.0 mm
02:49 PM 70.2°F21.2°C 99.4°F37.4°C - 10.3 mph SSE16.6 kmh SSE 14.3 mph23.0 kmh 29.93 in1013.5 mb 0.00 in0.0 mm 0.00 in0.0 mm 0.00 in0.0 mm
02:54 PM 70.4°F21.3°C 99.5°F37.5°C - 10.9 mph SSE17.5 kmh SSE 15.9 mph25.6 kmh 29.93 in1013.5 mb 0.00 in0.0 mm 0.00 in0.0 mm 0.00 in0.0 mm
02:59 PM 70.4°F21.3°C 99.7°F37.6°C - 8.7 mph SSE14.0 kmh SSE 13.0 mph20.9 kmh 29.93 in1013.5 mb 0.00 in0.0 mm 0.00 in0.0 mm 0.00 in0.0 mm
03:04 PM 70.5°F21.4°C 99.8°F37.7°C - 10.1 mph SSE16.3 kmh SSE 13.9 mph22.4 kmh 29.93 in1013.5 mb 0.00 in0.0 mm 0.00 in0.0 mm 0.00 in0.0 mm
03:09 PM 70.5°F21.4°C 99.8°F37.7°C - 8.2 mph SSE13.2 kmh SSE 11.1 mph17.9 kmh 29.93 in1013.5 mb 0.00 in0.0 mm 0.00 in0.0 mm 0.00 in0.0 mm
03:14 PM 70.7°F21.5°C 99.9°F37.7°C - 8.7 mph SSE14.0 kmh SSE 13.9 mph22.4 kmh 29.93 in1013.5 mb 0.00 in0.0 mm 0.00 in0.0 mm 0.00 in0.0 mm
03:19 PM 70.9°F21.6°C 100.1°F37.8°C - 7.8 mph SSE12.6 kmh SSE 12.4 mph20.0 kmh 29.93 in1013.5 mb 0.00 in0.0 mm 0.00 in0.0 mm 0.00 in0.0 mm
03:24 PM 71.0°F21.7°C 100.2°F37.9°C - 7.3 mph SSE11.7 kmh SSE 10.6 mph17.1 kmh 29.93 in1013.5 mb 0.00 in0.0 mm 0.00 in0.0 mm 0.00 in0.0 mm
03:29 PM 71.0°F21.7°C 100.3°F37.9°C - 7.4 mph SSE11.9 kmh SSE 11.0 mph17.7 kmh 29.93 in1013.5 mb 0.00 in0.0 mm 0.00 in0.0 mm 0.00 in0.0 mm
03:34 PM 71.0°F21.7°C 100.3°F37.9°C - 8.2 mph SSE13.2 kmh SSE 12.0 mph19.3 kmh 29.93 in1013.5 mb 0.00 in0.0 mm 0.00 in0.0 mm 0.00 in0.0 mm
03:39 PM 70.7°F21.5°C 99.9°F37.7°C - 8.5 mph SSE13.7 kmh SSE 12.1 mph19.5 kmh 29.93 in1013.5 mb 0.00 in0.0 mm 0.00 in0.0 mm 0.00 in0.0 mm
03:44 PM 70.9°F21.6°C 100.2°F37.9°C - 6.5 mph SE10.5 kmh SE 10.8 mph17.4 kmh 29.94 in1013.9 mb 0.00 in0.0 mm 0.00 in0.0 mm 0.00 in0.0 mm
03:49 PM 71.0°F21.7°C 100.3°F37.9°C - 7.9 mph SE12.7 kmh SE 14.1 mph22.7 kmh 29.93 in1013.5 mb 0.00 in0.0 mm 0.00 in0.0 mm 0.00 in0.0 mm
03:54 PM 71.0°F21.7°C 100.2°F37.9°C - 7.3 mph SSE11.7 kmh SSE 12.9 mph20.8 kmh 29.93 in1013.5 mb 0.00 in0.0 mm 0.00 in0.0 mm 0.00 in0.0 mm
03:59 PM 71.0°F21.7°C 100.2°F37.9°C - 9.3 mph SSE15.0 kmh SSE 14.3 mph23.0 kmh 29.93 in1013.5 mb 0.00 in0.0 mm 0.00 in0.0 mm 0.00 in0.0 mm
04:04 PM 70.9°F21.6°C 100.2°F37.9°C - 8.5 mph S13.7 kmh S 13.4 mph21.6 kmh 29.93 in1013.5 mb 0.00 in0.0 mm 0.00 in0.0 mm 0.00 in0.0 mm
04:09 PM 70.7°F21.5°C 99.9°F37.7°C - 9.9 mph SSE15.9 kmh SSE 14.0 mph22.5 kmh 29.93 in1013.5 mb 0.00 in0.0 mm 0.00 in0.0 mm 0.00 in0.0 mm
04:14 PM 70.7°F21.5°C 99.9°F37.7°C - 8.2 mph SSE13.2 kmh SSE 11.8 mph19.0 kmh 29.93 in1013.5 mb 0.00 in0.0 mm 0.00 in0.0 mm 0.00 in0.0 mm
04:19 PM 70.5°F21.4°C 99.7°F37.6°C - 8.0 mph S12.9 kmh S 11.1 mph17.9 kmh 29.93 in1013.5 mb 0.00 in0.0 mm 0.00 in0.0 mm 0.00 in0.0 mm
04:24 PM 70.5°F21.4°C 99.7°F37.6°C - 7.8 mph SSE12.6 kmh SSE 10.4 mph16.7 kmh 29.93 in1013.5 mb 0.00 in0.0 mm 0.00 in0.0 mm 0.00 in0.0 mm
04:29 PM 70.7°F21.5°C 100.0°F37.8°C - 5.1 mph SE8.2 kmh SE 7.9 mph12.7 kmh 29.93 in1013.5 mb 0.00 in0.0 mm 0.00 in0.0 mm 0.00 in0.0 mm
04:34 PM 70.8°F21.6°C 100.1°F37.8°C - 6.9 mph SSE11.1 kmh SSE 10.0 mph16.1 kmh 29.93 in1013.5 mb 0.00 in0.0 mm 0.00 in0.0 mm 0.00 in0.0 mm
04:39 PM 70.8°F21.6°C 100.1°F37.8°C - 5.5 mph S8.9 kmh S 8.7 mph14.0 kmh 29.93 in1013.5 mb 0.00 in0.0 mm 0.00 in0.0 mm 0.00 in0.0 mm
04:44 PM 70.7°F21.5°C 99.9°F37.7°C - 5.1 mph SE8.2 kmh SE 7.6 mph12.2 kmh 29.93 in1013.5 mb 0.00 in0.0 mm 0.00 in0.0 mm 0.00 in0.0 mm
04:49 PM 70.7°F21.5°C 99.9°F37.7°C - 6.6 mph SE10.6 kmh SE 10.1 mph16.3 kmh 29.93 in1013.5 mb 0.00 in0.0 mm 0.00 in0.0 mm 0.00 in0.0 mm
04:54 PM 70.7°F21.5°C 99.9°F37.7°C - 5.0 mph SSE8.0 kmh SSE 8.7 mph14.0 kmh 29.93 in1013.5 mb 0.00 in0.0 mm 0.00 in0.0 mm 0.00 in0.0 mm
04:59 PM 70.5°F21.4°C 99.8°F37.7°C - 5.8 mph SE9.3 kmh SE 8.9 mph14.3 kmh 29.93 in1013.5 mb 0.00 in0.0 mm 0.00 in0.0 mm 0.00 in0.0 mm
05:04 PM 70.2°F21.2°C 99.4°F37.4°C - 5.6 mph SSE9.0 kmh SSE 9.3 mph15.0 kmh 29.93 in1013.5 mb 0.00 in0.0 mm 0.00 in0.0 mm 0.00 in0.0 mm
05:09 PM 70.0°F21.1°C 99.2°F37.3°C - 5.7 mph SSE9.2 kmh SSE 8.9 mph14.3 kmh 29.93 in1013.5 mb 0.00 in0.0 mm 0.00 in0.0 mm 0.00 in0.0 mm
05:14 PM 69.7°F20.9°C 98.7°F37.1°C - 6.2 mph SE10.0 kmh SE 10.4 mph16.7 kmh 29.93 in1013.5 mb 0.00 in0.0 mm 0.00 in0.0 mm 0.00 in0.0 mm
05:19 PM 69.7°F20.9°C 98.7°F37.1°C - 6.4 mph SE10.3 kmh SE 8.6 mph13.8 kmh 29.93 in1013.5 mb 0.00 in0.0 mm 0.00 in0.0 mm 0.00 in0.0 mm
05:24 PM 69.5°F20.8°C 98.7°F37.1°C - 5.7 mph SE9.2 kmh SE 8.6 mph13.8 kmh 29.93 in1013.5 mb 0.00 in0.0 mm 0.00 in0.0 mm 0.00 in0.0 mm
05:29 PM 69.4°F20.8°C 98.5°F36.9°C - 5.5 mph SE8.9 kmh SE 8.3 mph13.4 kmh 29.93 in1013.5 mb 0.00 in0.0 mm 0.00 in0.0 mm 0.00 in0.0 mm
05:34 PM 69.0°F20.6°C 98.1°F36.7°C - 7.5 mph SSE12.1 kmh SSE 14.5 mph23.3 kmh 29.94 in1013.9 mb 0.00 in0.0 mm 0.00 in0.0 mm 0.00 in0.0 mm
05:39 PM 68.5°F20.3°C 97.4°F36.3°C - 6.2 mph SSE10.0 kmh SSE 9.2 mph14.8 kmh 29.94 in1013.9 mb 0.00 in0.0 mm 0.00 in0.0 mm 0.00 in0.0 mm
05:44 PM 68.0°F20.0°C 97.0°F36.1°C - 6.0 mph SSE9.7 kmh SSE 9.6 mph15.4 kmh 29.94 in1013.9 mb 0.00 in0.0 mm 0.00 in0.0 mm 0.00 in0.0 mm
05:49 PM 67.7°F19.8°C 96.6°F35.9°C - 5.5 mph SSE8.9 kmh SSE 8.7 mph14.0 kmh 29.94 in1013.9 mb 0.00 in0.0 mm 0.00 in0.0 mm 0.00 in0.0 mm
05:54 PM 67.5°F19.7°C 96.3°F35.7°C - 5.8 mph S9.3 kmh S 8.8 mph14.2 kmh 29.95 in1014.2 mb 0.00 in0.0 mm 0.00 in0.0 mm 0.00 in0.0 mm
05:59 PM 67.4°F19.7°C 96.3°F35.7°C - 6.5 mph SSE10.5 kmh SSE 10.2 mph16.4 kmh 29.95 in1014.2 mb 0.00 in0.0 mm 0.00 in0.0 mm 0.00 in0.0 mm
06:04 PM 67.2°F19.6°C 95.9°F35.5°C - 5.1 mph S8.2 kmh S 8.5 mph13.7 kmh 29.95 in1014.2 mb 0.00 in0.0 mm 0.00 in0.0 mm 0.00 in0.0 mm
06:09 PM 67.2°F19.6°C 96.1°F35.6°C - 5.5 mph SE8.9 kmh SE 8.2 mph13.2 kmh 29.95 in1014.2 mb 0.00 in0.0 mm 0.00 in0.0 mm 0.00 in0.0 mm
06:14 PM 67.0°F19.4°C 95.8°F35.4°C - 5.3 mph SE8.5 kmh SE 8.3 mph13.4 kmh 29.95 in1014.2 mb 0.00 in0.0 mm 0.00 in0.0 mm 0.00 in0.0 mm
06:19 PM 66.9°F19.4°C 95.7°F35.4°C - 5.6 mph SE9.0 kmh SE 9.1 mph14.6 kmh 29.95 in1014.2 mb 0.00 in0.0 mm 0.00 in0.0 mm 0.00 in0.0 mm
06:24 PM 66.7°F19.3°C 95.4°F35.2°C - 4.7 mph SE7.6 kmh SE 7.2 mph11.6 kmh 29.95 in1014.2 mb 0.00 in0.0 mm 0.00 in0.0 mm 0.00 in0.0 mm
06:29 PM 66.5°F19.2°C 95.3°F35.2°C - 4.5 mph SE7.2 kmh SE 7.6 mph12.2 kmh 29.95 in1014.2 mb 0.00 in0.0 mm 0.00 in0.0 mm 0.00 in0.0 mm
06:34 PM 66.4°F19.1°C 95.0°F35.0°C - 5.7 mph SSE9.2 kmh SSE 8.6 mph13.8 kmh 29.95 in1014.2 mb 0.00 in0.0 mm 0.00 in0.0 mm 0.00 in0.0 mm
06:39 PM 66.2°F19.0°C 94.9°F34.9°C - 5.2 mph SE8.4 kmh SE 8.0 mph12.9 kmh 29.95 in1014.2 mb 0.00 in0.0 mm 0.00 in0.0 mm 0.00 in0.0 mm
06:44 PM 66.2°F19.0°C 94.9°F34.9°C - 5.5 mph SSE8.9 kmh SSE 10.3 mph16.6 kmh 29.95 in1014.2 mb 0.00 in0.0 mm 0.00 in0.0 mm 0.00 in0.0 mm
06:49 PM 66.2°F19.0°C 94.8°F34.9°C - 5.3 mph SSE8.5 kmh SSE 8.9 mph14.3 kmh 29.95 in1014.2 mb 0.00 in0.0 mm 0.00 in0.0 mm 0.00 in0.0 mm
06:54 PM 66.2°F19.0°C 94.9°F34.9°C - 6.1 mph SSE9.8 kmh SSE 9.1 mph14.6 kmh 29.96 in1014.6 mb 0.00 in0.0 mm 0.00 in0.0 mm 0.00 in0.0 mm
06:59 PM 66.2°F19.0°C 94.9°F34.9°C - 6.6 mph SE10.6 kmh SE 9.7 mph15.6 kmh 29.95 in1014.2 mb 0.00 in0.0 mm 0.00 in0.0 mm 0.00 in0.0 mm
07:04 PM 66.4°F19.1°C 95.0°F35.0°C - 6.0 mph SE9.7 kmh SE 10.2 mph16.4 kmh 29.95 in1014.2 mb 0.00 in0.0 mm 0.00 in0.0 mm 0.00 in0.0 mm
07:09 PM 66.2°F19.0°C 94.8°F34.9°C - 4.7 mph SSE7.6 kmh SSE 7.6 mph12.2 kmh 29.96 in1014.6 mb 0.00 in0.0 mm 0.00 in0.0 mm 0.00 in0.0 mm
07:14 PM 66.2°F19.0°C 94.9°F34.9°C - 4.8 mph SSE7.7 kmh SSE 7.9 mph12.7 kmh 29.96 in1014.6 mb 0.00 in0.0 mm 0.00 in0.0 mm 0.00 in0.0 mm
07:19 PM 66.0°F18.9°C 94.7°F34.8°C - 5.0 mph SSE8.0 kmh SSE 7.5 mph12.1 kmh 29.96 in1014.6 mb 0.00 in0.0 mm 0.00 in0.0 mm 0.00 in0.0 mm
07:24 PM 65.8°F18.8°C 94.5°F34.7°C - 5.5 mph SSE8.9 kmh SSE 8.0 mph12.9 kmh 29.96 in1014.6 mb 0.00 in0.0 mm 0.00 in0.0 mm 0.00 in0.0 mm
07:29 PM 65.7°F18.7°C 94.4°F34.7°C - 6.6 mph SSE10.6 kmh SSE 9.4 mph15.1 kmh 29.96 in1014.6 mb 0.00 in0.0 mm 0.00 in0.0 mm 0.00 in0.0 mm
07:34 PM 65.9°F18.8°C 94.6°F34.8°C - 6.8 mph SSE10.9 kmh SSE 10.3 mph16.6 kmh 29.96 in1014.6 mb 0.00 in0.0 mm 0.00 in0.0 mm 0.00 in0.0 mm
07:39 PM 66.0°F18.9°C 94.6°F34.8°C - 6.6 mph SSE10.6 kmh SSE 9.6 mph15.4 kmh 29.96 in1014.6 mb 0.00 in0.0 mm 0.00 in0.0 mm 0.00 in0.0 mm
07:44 PM 66.0°F18.9°C 94.7°F34.8°C - 6.1 mph SSE9.8 kmh SSE 9.8 mph15.8 kmh 29.96 in1014.6 mb 0.00 in0.0 mm 0.00 in0.0 mm 0.00 in0.0 mm
07:49 PM 65.9°F18.8°C 94.6°F34.8°C - 5.3 mph SSE8.5 kmh SSE 8.8 mph14.2 kmh 29.96 in1014.6 mb 0.00 in0.0 mm 0.00 in0.0 mm 0.00 in0.0 mm
07:54 PM 65.7°F18.7°C 94.4°F34.7°C - 6.3 mph SSE10.1 kmh SSE 8.9 mph14.3 kmh 29.96 in1014.6 mb 0.00 in0.0 mm 0.00 in0.0 mm 0.00 in0.0 mm
07:59 PM 65.7°F18.7°C 94.4°F34.7°C - 5.5 mph SSE8.9 kmh SSE 8.5 mph13.7 kmh 29.96 in1014.6 mb 0.00 in0.0 mm 0.00 in0.0 mm 0.00 in0.0 mm
08:04 PM 65.7°F18.7°C 94.2°F34.6°C - 5.2 mph SE8.4 kmh SE 8.9 mph14.3 kmh 29.96 in1014.6 mb 0.00 in0.0 mm 0.00 in0.0 mm 0.00 in0.0 mm
08:09 PM 65.7°F18.7°C 94.2°F34.6°C - 5.6 mph SSE9.0 kmh SSE 8.8 mph14.2 kmh 29.96 in1014.6 mb 0.00 in0.0 mm 0.00 in0.0 mm 0.00 in0.0 mm
08:14 PM 65.5°F18.6°C 94.1°F34.5°C - 5.8 mph SE9.3 kmh SE 9.0 mph14.5 kmh 29.96 in1014.6 mb 0.00 in0.0 mm 0.00 in0.0 mm 0.00 in0.0 mm
08:19 PM 65.5°F18.6°C 94.0°F34.4°C - 5.1 mph SSE8.2 kmh SSE 7.9 mph12.7 kmh 29.96 in1014.6 mb 0.00 in0.0 mm 0.00 in0.0 mm 0.00 in0.0 mm
08:24 PM 65.5°F18.6°C 94.1°F34.5°C - 6.2 mph SSE10.0 kmh SSE 9.8 mph15.8 kmh 29.96 in1014.6 mb 0.00 in0.0 mm 0.00 in0.0 mm 0.00 in0.0 mm
08:29 PM 65.4°F18.6°C 94.0°F34.4°C - 6.8 mph SSE10.9 kmh SSE 10.2 mph16.4 kmh 29.96 in1014.6 mb 0.00 in0.0 mm 0.00 in0.0 mm 0.00 in0.0 mm
08:34 PM 65.3°F18.5°C 93.8°F34.3°C - 8.7 mph S14.0 kmh S 11.7 mph18.8 kmh 29.96 in1014.6 mb 0.00 in0.0 mm 0.00 in0.0 mm 0.00 in0.0 mm
08:39 PM 65.4°F18.6°C 93.9°F34.4°C - 8.4 mph S13.5 kmh S 12.1 mph19.5 kmh 29.96 in1014.6 mb 0.00 in0.0 mm 0.00 in0.0 mm 0.00 in0.0 mm
08:44 PM 65.4°F18.6°C 94.0°F34.4°C - 8.8 mph S14.2 kmh S 12.6 mph20.3 kmh 29.96 in1014.6 mb 0.00 in0.0 mm 0.00 in0.0 mm 0.00 in0.0 mm
08:49 PM 65.5°F18.6°C 94.1°F34.5°C - 9.2 mph S14.8 kmh S 13.0 mph20.9 kmh 29.96 in1014.6 mb 0.00 in0.0 mm 0.00 in0.0 mm 0.00 in0.0 mm
08:54 PM 65.5°F18.6°C 94.1°F34.5°C - 7.7 mph SSE12.4 kmh SSE 11.9 mph19.2 kmh 29.95 in1014.2 mb 0.00 in0.0 mm 0.00 in0.0 mm 0.00 in0.0 mm
08:59 PM 65.4°F18.6°C 93.9°F34.4°C - 8.2 mph SSE13.2 kmh SSE 11.6 mph18.7 kmh 29.95 in1014.2 mb 0.00 in0.0 mm 0.00 in0.0 mm 0.00 in0.0 mm
09:04 PM 65.2°F18.4°C 93.8°F34.3°C - 8.6 mph S13.8 kmh S 12.9 mph20.8 kmh 29.96 in1014.6 mb 0.00 in0.0 mm 0.00 in0.0 mm 0.00 in0.0 mm
09:09 PM 65.2°F18.4°C 93.7°F34.3°C - 8.9 mph S14.3 kmh S 13.4 mph21.6 kmh 29.96 in1014.6 mb 0.00 in0.0 mm 0.00 in0.0 mm 0.00 in0.0 mm
09:14 PM 65.2°F18.4°C 93.8°F34.3°C - 7.8 mph S12.6 kmh S 11.0 mph17.7 kmh 29.96 in1014.6 mb 0.00 in0.0 mm 0.00 in0.0 mm 0.00 in0.0 mm
09:19 PM 65.2°F18.4°C 93.8°F34.3°C - 8.8 mph S14.2 kmh S 11.6 mph18.7 kmh 29.96 in1014.6 mb 0.00 in0.0 mm 0.00 in0.0 mm 0.00 in0.0 mm
09:24 PM 65.2°F18.4°C 93.7°F34.3°C - 8.0 mph SSE12.9 kmh SSE 10.5 mph16.9 kmh 29.96 in1014.6 mb 0.00 in0.0 mm 0.00 in0.0 mm 0.00 in0.0 mm
09:29 PM 65.0°F18.3°C 93.4°F34.1°C - 8.0 mph SSE12.9 kmh SSE 10.3 mph16.6 kmh 29.96 in1014.6 mb 0.00 in0.0 mm 0.00 in0.0 mm 0.00 in0.0 mm
09:34 PM 64.8°F18.2°C 93.3°F34.1°C - 8.4 mph S13.5 kmh S 11.5 mph18.5 kmh 29.96 in1014.6 mb 0.00 in0.0 mm 0.00 in0.0 mm 0.00 in0.0 mm
09:39 PM 64.7°F18.2°C 93.1°F33.9°C - 8.4 mph S13.5 kmh S 11.7 mph18.8 kmh 29.96 in1014.6 mb 0.00 in0.0 mm 0.00 in0.0 mm 0.00 in0.0 mm
09:44 PM 64.5°F18.1°C 93.0°F33.9°C - 8.6 mph SSE13.8 kmh SSE 11.1 mph17.9 kmh 29.96 in1014.6 mb 0.00 in0.0 mm 0.00 in0.0 mm 0.00 in0.0 mm
09:49 PM 64.5°F18.1°C 93.0°F33.9°C - 8.1 mph S13.0 kmh S 12.2 mph19.6 kmh 29.96 in1014.6 mb 0.00 in0.0 mm 0.00 in0.0 mm 0.00 in0.0 mm
09:54 PM 64.4°F18.0°C 92.9°F33.8°C - 9.3 mph S15.0 kmh S 13.4 mph21.6 kmh 29.96 in1014.6 mb 0.00 in0.0 mm 0.00 in0.0 mm 0.00 in0.0 mm
09:59 PM 64.4°F18.0°C 92.9°F33.8°C - 8.7 mph S14.0 kmh S 12.5 mph20.1 kmh 29.96 in1014.6 mb 0.00 in0.0 mm 0.00 in0.0 mm 0.00 in0.0 mm
10:04 PM 64.5°F18.1°C 92.9°F33.8°C - 9.0 mph S14.5 kmh S 12.0 mph19.3 kmh 29.96 in1014.6 mb 0.00 in0.0 mm 0.00 in0.0 mm 0.00 in0.0 mm
10:09 PM 64.5°F18.1°C 93.0°F33.9°C - 8.7 mph S14.0 kmh S 12.6 mph20.3 kmh 29.96 in1014.6 mb 0.00 in0.0 mm 0.00 in0.0 mm 0.00 in0.0 mm
10:14 PM 64.5°F18.1°C 93.0°F33.9°C - 9.0 mph S14.5 kmh S 12.6 mph20.3 kmh 29.96 in1014.6 mb 0.00 in0.0 mm 0.00 in0.0 mm 0.00 in0.0 mm
10:19 PM 64.5°F18.1°C 93.0°F33.9°C - 9.8 mph S15.8 kmh S 13.1 mph21.1 kmh 29.96 in1014.6 mb 0.00 in0.0 mm 0.00 in0.0 mm 0.00 in0.0 mm
10:24 PM 64.6°F18.1°C 93.0°F33.9°C - 10.7 mph S17.2 kmh S 13.9 mph22.4 kmh 29.96 in1014.6 mb 0.00 in0.0 mm 0.00 in0.0 mm 0.00 in0.0 mm
10:29 PM 64.7°F18.2°C 93.2°F34.0°C - 8.8 mph S14.2 kmh S 11.6 mph18.7 kmh 29.96 in1014.6 mb 0.00 in0.0 mm 0.00 in0.0 mm 0.00 in0.0 mm
10:34 PM 64.7°F18.2°C 93.2°F34.0°C - 8.3 mph S13.4 kmh S 11.9 mph19.2 kmh 29.96 in1014.6 mb 0.00 in0.0 mm 0.00 in0.0 mm 0.00 in0.0 mm
10:39 PM 64.5°F18.1°C 92.9°F33.8°C - 8.4 mph S13.5 kmh S 11.1 mph17.9 kmh 29.96 in1014.6 mb 0.00 in0.0 mm 0.00 in0.0 mm 0.00 in0.0 mm
10:44 PM 64.7°F18.2°C 93.1°F33.9°C - 9.6 mph S15.4 kmh S 12.9 mph20.8 kmh 29.95 in1014.2 mb 0.00 in0.0 mm 0.00 in0.0 mm 0.00 in0.0 mm
10:49 PM 64.7°F18.2°C 93.2°F34.0°C - 8.6 mph S13.8 kmh S 12.7 mph20.4 kmh 29.96 in1014.6 mb 0.00 in0.0 mm 0.00 in0.0 mm 0.00 in0.0 mm
10:54 PM 64.7°F18.2°C 93.2°F34.0°C - 9.3 mph S15.0 kmh S 13.9 mph22.4 kmh 29.96 in1014.6 mb 0.00 in0.0 mm 0.00 in0.0 mm 0.00 in0.0 mm
11:04 PM 64.9°F18.3°C 93.5°F34.2°C - 8.3 mph S13.4 kmh S 12.0 mph19.3 kmh 29.95 in1014.2 mb 0.00 in0.0 mm 0.00 in0.0 mm 0.00 in0.0 mm
11:09 PM 64.9°F18.3°C 93.3°F34.1°C - 10.1 mph S16.3 kmh S 15.1 mph24.3 kmh 29.95 in1014.2 mb 0.00 in0.0 mm 0.00 in0.0 mm 0.00 in0.0 mm
11:14 PM 64.9°F18.3°C 93.3°F34.1°C - 9.2 mph SSE14.8 kmh SSE 14.0 mph22.5 kmh 29.95 in1014.2 mb 0.00 in0.0 mm 0.00 in0.0 mm 0.00 in0.0 mm
11:19 PM 64.9°F18.3°C 93.5°F34.2°C - 10.8 mph S17.4 kmh S 14.1 mph22.7 kmh 29.95 in1014.2 mb 0.00 in0.0 mm 0.00 in0.0 mm 0.00 in0.0 mm
11:24 PM 64.9°F18.3°C 93.3°F34.1°C - 8.7 mph S14.0 kmh S 12.6 mph20.3 kmh 29.96 in1014.6 mb 0.00 in0.0 mm 0.00 in0.0 mm 0.00 in0.0 mm
11:29 PM 64.6°F18.1°C 93.0°F33.9°C - 9.5 mph S15.3 kmh S 12.9 mph20.8 kmh 29.96 in1014.6 mb 0.00 in0.0 mm 0.00 in0.0 mm 0.00 in0.0 mm
11:34 PM 64.5°F18.1°C 93.0°F33.9°C - 9.2 mph S14.8 kmh S 12.2 mph19.6 kmh 29.96 in1014.6 mb 0.00 in0.0 mm 0.00 in0.0 mm 0.00 in0.0 mm
11:39 PM 64.4°F18.0°C 92.8°F33.8°C - 9.1 mph S14.6 kmh S 12.4 mph20.0 kmh 29.96 in1014.6 mb 0.00 in0.0 mm 0.00 in0.0 mm 0.00 in0.0 mm
11:44 PM 64.4°F18.0°C 92.9°F33.8°C - 10.2 mph S16.4 kmh S 15.2 mph24.5 kmh 29.96 in1014.6 mb 0.00 in0.0 mm 0.00 in0.0 mm 0.00 in0.0 mm
11:49 PM 64.5°F18.1°C 93.0°F33.9°C - 10.2 mph S16.4 kmh S 14.2 mph22.9 kmh 29.96 in1014.6 mb 0.00 in0.0 mm 0.00 in0.0 mm 0.00 in0.0 mm
11:54 PM 64.5°F18.1°C 92.9°F33.8°C - 10.9 mph S17.5 kmh S 14.5 mph23.3 kmh 29.96 in1014.6 mb 0.00 in0.0 mm 0.00 in0.0 mm 0.00 in0.0 mm
11:59 PM 64.5°F18.1°C 92.9°F33.8°C - Calm Calm -- 0.00 in0.0 mb 0.00 in0.0 mm 0.00 in0.0 mm 0.00 in0.0 mm